createdAt,value
2023-03-06T00:00:34.163Z,100.00
2023-03-06T00:03:01.034Z,100.00
2023-03-06T00:05:27.883Z,100.00
2023-03-06T00:07:54.441Z,100.00
2023-03-06T00:10:24.020Z,100.00
2023-03-06T00:12:55.736Z,100.00
2023-03-06T00:15:23.548Z,100.00
2023-03-06T00:17:50.106Z,100.00
2023-03-06T00:20:17.191Z,100.00
2023-03-06T00:22:44.181Z,100.00
2023-03-06T00:25:14.375Z,100.00
2023-03-06T00:27:41.131Z,100.00
2023-03-06T00:30:10.534Z,100.00
2023-03-06T00:32:37.094Z,100.00
2023-03-06T00:35:04.031Z,100.00
2023-03-06T00:37:30.633Z,99.53
2023-03-06T00:39:57.091Z,99.49
2023-03-06T00:42:23.624Z,99.79
2023-03-06T00:44:50.088Z,99.40
2023-03-06T00:47:19.644Z,100.00
2023-03-06T00:49:46.310Z,100.00
2023-03-06T00:52:13.659Z,100.00
2023-03-06T00:54:40.701Z,100.00
2023-03-06T00:57:07.893Z,100.00
2023-03-06T00:59:34.756Z,100.00
2023-03-06T01:02:01.633Z,100.00
2023-03-06T01:04:28.226Z,100.00
2023-03-06T01:06:54.640Z,100.00
2023-03-06T01:09:21.229Z,100.00
2023-03-06T01:11:47.721Z,100.00
2023-03-06T01:14:14.212Z,100.00
2023-03-06T01:16:40.889Z,100.00
2023-03-06T01:19:07.460Z,100.00
2023-03-06T01:21:34.026Z,100.00
2023-03-06T01:24:00.479Z,100.00
2023-03-06T01:26:26.987Z,100.00
2023-03-06T01:28:53.632Z,100.00
2023-03-06T01:31:20.136Z,100.00
2023-03-06T01:33:46.593Z,100.00
2023-03-06T01:36:13.165Z,100.00
2023-03-06T01:38:39.735Z,100.00
2023-03-06T01:41:07.238Z,100.00
2023-03-06T01:43:36.331Z,100.00
2023-03-06T01:46:24.789Z,100.00
2023-03-06T01:48:59.675Z,100.00
2023-03-06T01:51:33.447Z,100.00
2023-03-06T01:54:04.908Z,100.00
2023-03-06T01:56:31.750Z,100.00
2023-03-06T01:58:59.620Z,100.00
2023-03-06T02:01:26.776Z,100.00
2023-03-06T02:03:55.220Z,100.00
2023-03-06T02:06:21.912Z,100.00
2023-03-06T02:08:51.578Z,100.00
2023-03-06T02:11:21.876Z,100.00
2023-03-06T02:13:51.492Z,100.00
2023-03-06T02:16:22.238Z,100.00
2023-03-06T02:18:49.004Z,100.00
2023-03-06T02:21:22.035Z,100.00
2023-03-06T02:23:48.443Z,100.00
2023-03-06T02:26:16.459Z,100.00
2023-03-06T02:28:43.201Z,100.00
2023-03-06T02:31:21.476Z,100.00
2023-03-06T02:34:20.339Z,100.00
2023-03-06T02:36:53.338Z,100.00
2023-03-06T02:39:25.920Z,100.00
2023-03-06T02:41:52.662Z,100.00
2023-03-06T02:44:19.648Z,100.00
2023-03-06T02:46:46.146Z,100.00
2023-03-06T02:49:12.652Z,100.00
2023-03-06T02:51:39.128Z,100.00
2023-03-06T02:54:05.730Z,100.00
2023-03-06T02:56:32.247Z,100.00
2023-03-06T02:58:58.768Z,100.00
2023-03-06T03:01:25.299Z,100.00
2023-03-06T03:03:52.013Z,100.00
2023-03-06T03:06:18.486Z,100.00
2023-03-06T03:08:44.977Z,100.00
2023-03-06T03:11:12.253Z,100.00
2023-03-06T03:13:38.914Z,100.00
2023-03-06T03:16:11.177Z,100.00
2023-03-06T03:18:37.702Z,100.00
2023-03-06T03:21:08.695Z,99.50
2023-03-06T03:23:35.197Z,99.28
2023-03-06T03:26:15.860Z,99.47
2023-03-06T03:28:42.826Z,98.83
2023-03-06T03:31:10.986Z,98.80
2023-03-06T03:33:37.724Z,98.38
2023-03-06T03:36:06.482Z,98.74
2023-03-06T03:38:33.427Z,98.31
2023-03-06T03:41:03.911Z,98.62
2023-03-06T03:43:30.615Z,98.31
2023-03-06T03:45:57.082Z,98.13
2023-03-06T03:48:23.569Z,98.04
2023-03-06T03:50:50.075Z,97.96
2023-03-06T03:53:16.942Z,98.31
2023-03-06T03:55:43.418Z,97.81
2023-03-06T03:58:09.899Z,97.76
2023-03-06T04:00:36.370Z,97.49
2023-03-06T04:03:02.834Z,97.94
2023-03-06T04:05:29.303Z,97.73
2023-03-06T04:07:55.736Z,97.78
2023-03-06T04:10:22.196Z,97.42
2023-03-06T04:12:48.653Z,97.41
2023-03-06T04:15:15.098Z,98.17
2023-03-06T04:17:41.675Z,97.47
2023-03-06T04:20:08.926Z,97.74
2023-03-06T04:22:35.450Z,97.28
2023-03-06T04:25:02.015Z,97.76
2023-03-06T04:27:28.530Z,97.36
2023-03-06T04:29:56.308Z,97.09
2023-03-06T04:32:23.879Z,97.08
2023-03-06T04:34:50.459Z,96.80
2023-03-06T04:37:22.376Z,96.77
2023-03-06T04:39:49.124Z,96.77
2023-03-06T04:42:16.018Z,97.01
2023-03-06T04:44:42.909Z,96.90
2023-03-06T04:47:09.767Z,97.05
2023-03-06T04:49:36.332Z,97.05
2023-03-06T04:52:03.467Z,96.40
2023-03-06T04:54:30.136Z,96.68
2023-03-06T04:56:57.337Z,96.19
2023-03-06T04:59:23.937Z,96.74
2023-03-06T05:01:50.740Z,96.40
2023-03-06T05:04:17.248Z,96.17
2023-03-06T05:06:43.769Z,95.81
2023-03-06T05:09:10.439Z,96.55
2023-03-06T05:11:37.000Z,96.16
2023-03-06T05:14:03.456Z,96.14
2023-03-06T05:16:29.984Z,96.18
2023-03-06T05:18:56.542Z,96.36
2023-03-06T05:21:23.065Z,96.88
2023-03-06T05:23:49.609Z,96.74
2023-03-06T05:26:16.353Z,96.15
2023-03-06T05:28:42.915Z,96.05
2023-03-06T05:31:09.438Z,96.04
2023-03-06T05:33:36.707Z,95.70
2023-03-06T05:36:03.411Z,95.21
2023-03-06T05:38:29.974Z,95.48
2023-03-06T05:40:56.448Z,94.82
2023-03-06T05:43:22.897Z,94.78
2023-03-06T05:45:51.896Z,94.81
2023-03-06T05:48:18.832Z,95.01
2023-03-06T05:50:45.267Z,95.01
2023-03-06T05:53:11.672Z,94.34
2023-03-06T05:55:38.184Z,93.48
2023-03-06T05:58:04.617Z,93.19
2023-03-06T06:00:31.179Z,93.07
2023-03-06T06:03:02.106Z,93.24
2023-03-06T06:05:28.470Z,93.15
2023-03-06T06:07:54.911Z,93.33
2023-03-06T06:10:21.404Z,93.73
2023-03-06T06:12:47.965Z,93.20
2023-03-06T06:15:15.378Z,93.17
2023-03-06T06:17:41.836Z,93.49
2023-03-06T06:20:11.347Z,93.20
2023-03-06T06:22:38.197Z,93.47
2023-03-06T06:25:07.393Z,93.48
2023-03-06T06:27:33.915Z,93.87
2023-03-06T06:30:00.379Z,93.37
2023-03-06T06:32:26.889Z,93.34
2023-03-06T06:34:53.389Z,93.44
2023-03-06T06:37:19.900Z,93.82
2023-03-06T06:39:46.367Z,93.80
2023-03-06T06:42:30.467Z,93.51
2023-03-06T06:44:58.145Z,94.13
2023-03-06T06:47:25.754Z,94.06
2023-03-06T06:49:54.234Z,94.05
2023-03-06T06:52:21.067Z,94.62
2023-03-06T06:54:47.648Z,95.04
2023-03-06T06:57:14.596Z,94.40
2023-03-06T06:59:42.444Z,94.52
2023-03-06T07:02:12.559Z,94.14
2023-03-06T07:04:52.403Z,94.09
2023-03-06T07:07:26.602Z,94.36
2023-03-06T07:09:53.073Z,94.34
2023-03-06T07:12:19.545Z,93.42
2023-03-06T07:14:46.835Z,94.22
2023-03-06T07:17:13.552Z,93.58
2023-03-06T07:19:39.990Z,93.21
2023-03-06T07:22:07.614Z,93.86
2023-03-06T07:24:34.261Z,93.96
2023-03-06T07:27:00.781Z,93.97
2023-03-06T07:29:27.268Z,92.77
2023-03-06T07:31:53.751Z,91.94
2023-03-06T07:34:20.207Z,92.05
2023-03-06T07:36:46.794Z,92.21
2023-03-06T07:39:13.257Z,91.81
2023-03-06T07:41:39.765Z,92.09
2023-03-06T07:44:06.322Z,92.52
2023-03-06T07:46:34.305Z,92.67
2023-03-06T07:49:00.840Z,92.62
2023-03-06T07:51:27.974Z,91.89
2023-03-06T07:53:54.421Z,91.22
2023-03-06T07:56:20.981Z,91.14
2023-03-06T07:58:48.189Z,90.74
2023-03-06T08:01:17.414Z,90.91
2023-03-06T08:03:44.582Z,91.30
2023-03-06T08:06:13.700Z,91.00
2023-03-06T08:08:42.180Z,91.31
2023-03-06T08:11:10.672Z,91.13
2023-03-06T08:13:38.465Z,91.46
2023-03-06T08:16:05.475Z,91.17
2023-03-06T08:18:32.294Z,91.47
2023-03-06T08:21:13.820Z,91.83
2023-03-06T08:23:40.958Z,91.43
2023-03-06T08:26:34.027Z,91.19
2023-03-06T08:29:02.211Z,90.79
2023-03-06T08:31:40.350Z,91.74
2023-03-06T08:34:09.611Z,91.63
2023-03-06T08:36:36.511Z,91.95
2023-03-06T08:39:03.737Z,92.25
2023-03-06T08:41:30.510Z,91.93
2023-03-06T08:43:57.210Z,92.24
2023-03-06T08:46:25.430Z,91.29
2023-03-06T08:48:52.263Z,91.00
2023-03-06T08:51:19.767Z,90.86
2023-03-06T08:53:46.640Z,91.43
2023-03-06T08:56:20.248Z,91.29
2023-03-06T08:58:47.707Z,90.42
2023-03-06T09:01:20.261Z,90.88
2023-03-06T09:03:47.675Z,90.53
2023-03-06T09:06:14.534Z,89.11
2023-03-06T09:08:43.173Z,89.60
2023-03-06T09:11:14.807Z,89.85
2023-03-06T09:13:44.493Z,89.34
2023-03-06T09:16:11.777Z,89.57
2023-03-06T09:18:38.516Z,89.22
2023-03-06T09:21:06.940Z,88.85
2023-03-06T09:23:34.104Z,89.25
2023-03-06T09:26:01.919Z,88.54
2023-03-06T09:28:28.746Z,88.20
2023-03-06T09:30:55.475Z,88.07
2023-03-06T09:33:22.855Z,87.82
2023-03-06T09:35:53.210Z,87.72
2023-03-06T09:38:22.173Z,86.42
2023-03-06T09:41:22.076Z,85.19
2023-03-06T09:43:52.311Z,85.44
2023-03-06T09:46:40.160Z,85.09
2023-03-06T09:49:35.114Z,85.22
2023-03-06T09:52:38.499Z,84.53
2023-03-06T09:55:05.087Z,84.02
2023-03-06T09:57:36.773Z,84.15
2023-03-06T10:00:12.952Z,84.66
2023-03-06T10:02:48.270Z,84.65
2023-03-06T10:05:24.084Z,84.40
2023-03-06T10:08:17.677Z,85.66
2023-03-06T10:10:50.833Z,86.26
2023-03-06T10:13:50.405Z,86.30
2023-03-06T10:16:33.226Z,87.06
2023-03-06T10:19:03.092Z,87.27
2023-03-06T10:22:02.135Z,87.47
2023-03-06T10:24:52.335Z,87.52
2023-03-06T10:27:31.678Z,87.55
2023-03-06T10:30:19.929Z,88.81
2023-03-06T10:32:57.823Z,89.82
2023-03-06T10:35:32.633Z,90.72
2023-03-06T10:38:24.012Z,91.44
2023-03-06T10:41:12.089Z,91.41
2023-03-06T10:43:43.901Z,91.48
2023-03-06T10:46:13.043Z,90.63
2023-03-06T10:48:42.344Z,89.63
2023-03-06T10:51:24.113Z,88.60
2023-03-06T10:53:58.545Z,88.64
2023-03-06T10:56:37.105Z,88.35
2023-03-06T10:59:11.306Z,89.60
2023-03-06T11:01:38.870Z,89.06
2023-03-06T11:04:37.692Z,88.50
2023-03-06T11:07:20.625Z,88.25
2023-03-06T11:10:19.476Z,86.60
2023-03-06T11:13:19.338Z,85.85
2023-03-06T11:15:59.769Z,85.56
2023-03-06T11:18:38.719Z,85.42
2023-03-06T11:21:24.171Z,85.99
2023-03-06T11:23:52.050Z,86.82
2023-03-06T11:26:20.105Z,87.14
2023-03-06T11:29:06.581Z,86.98
2023-03-06T11:31:54.514Z,86.92
2023-03-06T11:34:42.439Z,87.08
2023-03-06T11:37:34.128Z,88.15
2023-03-06T11:40:19.123Z,89.74
2023-03-06T11:43:21.053Z,90.24
2023-03-06T11:46:10.284Z,90.46
2023-03-06T11:48:47.833Z,90.78
2023-03-06T11:51:19.977Z,90.00
2023-03-06T11:53:49.196Z,90.57
2023-03-06T11:56:18.617Z,90.22
2023-03-06T11:59:08.089Z,90.49
2023-03-06T12:01:41.091Z,90.37
2023-03-06T12:04:34.215Z,89.50
2023-03-06T12:07:28.902Z,89.38
2023-03-06T12:09:58.225Z,89.50
2023-03-06T12:12:41.172Z,89.49
2023-03-06T12:15:11.025Z,89.40
2023-03-06T12:17:56.104Z,89.76
2023-03-06T12:20:31.329Z,89.59
2023-03-06T12:23:15.386Z,88.95
2023-03-06T12:26:14.544Z,88.78
2023-03-06T12:28:51.468Z,89.05
2023-03-06T12:31:33.747Z,89.21
2023-03-06T12:34:09.314Z,89.62
2023-03-06T12:36:41.697Z,89.68
2023-03-06T12:39:14.163Z,89.40
2023-03-06T12:42:11.442Z,88.95
2023-03-06T12:45:26.246Z,88.64
2023-03-06T12:47:55.455Z,88.85
2023-03-06T12:50:30.979Z,88.90
2023-03-06T12:53:02.180Z,89.83
2023-03-06T12:55:37.599Z,88.67
2023-03-06T12:58:31.912Z,88.74
2023-03-06T13:01:13.865Z,87.86
2023-03-06T13:04:17.367Z,88.35
2023-03-06T13:07:02.117Z,90.10
2023-03-06T13:09:53.795Z,88.67
2023-03-06T13:12:35.923Z,88.89
2023-03-06T13:15:39.801Z,88.00
2023-03-06T13:18:28.064Z,87.90
2023-03-06T13:20:58.354Z,88.45
2023-03-06T13:23:33.991Z,88.09
2023-03-06T13:26:02.172Z,88.21
2023-03-06T13:28:46.045Z,88.10
2023-03-06T13:31:26.574Z,88.29
2023-03-06T13:33:55.570Z,88.54
2023-03-06T13:36:30.809Z,88.18
2023-03-06T13:38:57.589Z,88.56
2023-03-06T13:41:24.834Z,89.65
2023-03-06T13:43:59.743Z,90.35
2023-03-06T13:46:35.256Z,90.55
2023-03-06T13:49:07.659Z,90.51
2023-03-06T13:51:53.484Z,90.85
2023-03-06T13:54:38.701Z,91.29
2023-03-06T13:57:33.490Z,91.19
2023-03-06T14:00:44.094Z,93.07
2023-03-06T14:03:10.579Z,93.42
2023-03-06T14:05:48.870Z,95.15
2023-03-06T14:08:18.787Z,94.18
2023-03-06T14:10:48.249Z,95.56
2023-03-06T14:13:23.226Z,94.96
2023-03-06T14:15:52.662Z,95.14
2023-03-06T14:18:31.337Z,95.52
2023-03-06T14:21:01.204Z,95.50
2023-03-06T14:23:35.471Z,94.43
2023-03-06T14:26:19.977Z,93.32
2023-03-06T14:28:58.439Z,93.73
2023-03-06T14:31:28.980Z,92.89
2023-03-06T14:33:57.310Z,91.26
2023-03-06T14:36:31.062Z,91.64
2023-03-06T14:39:02.543Z,92.05
2023-03-06T14:41:32.161Z,92.00
2023-03-06T14:44:27.944Z,89.28
2023-03-06T14:46:56.435Z,88.58
2023-03-06T14:49:25.995Z,89.44
2023-03-06T14:52:00.833Z,88.01
2023-03-06T14:54:33.786Z,86.81
2023-03-06T14:57:08.582Z,87.85
2023-03-06T14:59:45.550Z,87.07
2023-03-06T15:02:22.879Z,86.54
2023-03-06T15:04:55.101Z,85.99
2023-03-06T15:07:32.870Z,85.59
2023-03-06T15:10:00.669Z,86.64
2023-03-06T15:12:27.250Z,86.51
2023-03-06T15:14:59.462Z,86.21
2023-03-06T15:17:26.278Z,85.67
2023-03-06T15:19:55.794Z,85.29
2023-03-06T15:22:38.953Z,85.45
2023-03-06T15:25:21.220Z,85.60
2023-03-06T15:27:55.877Z,85.85
2023-03-06T15:30:28.709Z,85.05
2023-03-06T15:33:20.091Z,85.22
2023-03-06T15:35:57.021Z,84.89
2023-03-06T15:38:45.495Z,84.37
2023-03-06T15:41:34.116Z,84.53
2023-03-06T15:44:03.133Z,85.09
2023-03-06T15:46:30.096Z,84.41
2023-03-06T15:49:03.155Z,84.60
2023-03-06T15:51:31.867Z,85.10
2023-03-06T15:54:11.359Z,85.16
2023-03-06T15:56:44.688Z,84.31
2023-03-06T15:59:21.724Z,83.90
2023-03-06T16:01:49.501Z,83.84
2023-03-06T16:04:17.115Z,84.14
2023-03-06T16:06:45.919Z,84.62
2023-03-06T16:09:13.756Z,84.60
2023-03-06T16:11:47.104Z,84.35
2023-03-06T16:14:24.144Z,84.32
2023-03-06T16:16:52.292Z,84.10
2023-03-06T16:19:29.028Z,84.09
2023-03-06T16:21:56.659Z,84.59
2023-03-06T16:24:26.256Z,83.88
2023-03-06T16:26:54.920Z,84.46
2023-03-06T16:29:23.798Z,84.07
2023-03-06T16:31:51.264Z,84.21
2023-03-06T16:34:21.523Z,84.40
2023-03-06T16:36:49.419Z,84.57
2023-03-06T16:39:18.510Z,84.54
2023-03-06T16:41:49.445Z,85.06
2023-03-06T16:44:16.557Z,84.99
2023-03-06T16:46:47.921Z,84.88
2023-03-06T16:49:25.465Z,84.76
2023-03-06T16:51:53.442Z,85.09
2023-03-06T16:54:21.830Z,85.11
2023-03-06T16:56:48.798Z,85.28
2023-03-06T16:59:15.632Z,85.36
2023-03-06T17:01:44.961Z,85.14
2023-03-06T17:04:11.773Z,85.18
2023-03-06T17:06:38.691Z,85.64
2023-03-06T17:09:05.319Z,85.39
2023-03-06T17:11:32.205Z,85.52
2023-03-06T17:13:58.916Z,84.79
2023-03-06T17:16:25.668Z,85.03
2023-03-06T17:18:52.724Z,84.61
2023-03-06T17:21:19.674Z,84.70
2023-03-06T17:23:46.619Z,84.72
2023-03-06T17:26:18.202Z,84.26
2023-03-06T17:28:45.891Z,83.74
2023-03-06T17:31:18.760Z,83.78
2023-03-06T17:33:45.962Z,83.23
2023-03-06T17:36:14.594Z,83.40
2023-03-06T17:38:42.568Z,82.69
2023-03-06T17:41:11.441Z,82.11
2023-03-06T17:43:39.390Z,80.75
2023-03-06T17:46:10.980Z,80.32
2023-03-06T17:48:38.214Z,79.33
2023-03-06T17:51:05.591Z,79.01
2023-03-06T17:53:32.402Z,78.96
2023-03-06T17:55:59.358Z,77.58
2023-03-06T17:58:26.865Z,77.24
2023-03-06T18:00:53.875Z,76.67
2023-03-06T18:03:21.044Z,76.35
2023-03-06T18:05:47.649Z,76.39
2023-03-06T18:08:14.304Z,75.98
2023-03-06T18:10:42.527Z,74.53
2023-03-06T18:13:09.804Z,75.19
2023-03-06T18:15:40.716Z,74.72
2023-03-06T18:18:07.783Z,74.46
2023-03-06T18:20:35.248Z,74.29
2023-03-06T18:23:03.799Z,74.32
2023-03-06T18:25:31.812Z,74.59
2023-03-06T18:27:59.003Z,73.82
2023-03-06T18:30:25.785Z,74.09
2023-03-06T18:32:52.345Z,74.09
2023-03-06T18:35:18.916Z,73.68
2023-03-06T18:37:45.677Z,73.65
2023-03-06T18:40:13.388Z,73.46
2023-03-06T18:42:40.136Z,72.98
2023-03-06T18:45:07.505Z,73.20
2023-03-06T18:47:34.103Z,73.65
2023-03-06T18:50:02.799Z,73.52
2023-03-06T18:52:29.722Z,73.57
2023-03-06T18:54:56.364Z,73.51
2023-03-06T18:57:23.234Z,73.82
2023-03-06T18:59:50.070Z,73.66
2023-03-06T19:02:16.936Z,73.75
2023-03-06T19:04:43.510Z,73.87
2023-03-06T19:07:10.144Z,73.66
2023-03-06T19:09:36.912Z,73.75
2023-03-06T19:12:03.731Z,73.31
2023-03-06T19:14:30.931Z,73.50
2023-03-06T19:16:57.386Z,73.03
2023-03-06T19:19:26.883Z,72.97
2023-03-06T19:21:53.804Z,72.76
2023-03-06T19:24:20.390Z,72.74
2023-03-06T19:26:47.140Z,72.47
2023-03-06T19:29:13.652Z,72.49
2023-03-06T19:31:40.669Z,72.32
2023-03-06T19:34:07.241Z,72.52
2023-03-06T19:36:34.338Z,72.14
2023-03-06T19:39:06.314Z,72.11
2023-03-06T19:41:33.669Z,72.20
2023-03-06T19:44:03.321Z,72.17
2023-03-06T19:46:31.697Z,72.17
2023-03-06T19:49:03.326Z,72.10
2023-03-06T19:51:30.153Z,72.09
2023-03-06T19:53:57.685Z,72.49
2023-03-06T19:56:29.034Z,72.05
2023-03-06T19:58:56.368Z,71.79
2023-03-06T20:01:24.971Z,71.78
2023-03-06T20:03:59.231Z,71.62
2023-03-06T20:06:29.048Z,71.76
2023-03-06T20:08:55.809Z,72.05
2023-03-06T20:11:29.935Z,71.94
2023-03-06T20:13:58.777Z,72.45
2023-03-06T20:16:32.467Z,72.03
2023-03-06T20:19:00.535Z,71.91
2023-03-06T20:21:29.217Z,72.16
2023-03-06T20:23:57.020Z,72.18
2023-03-06T20:26:24.332Z,72.26
2023-03-06T20:28:51.014Z,72.09
2023-03-06T20:31:20.052Z,72.29
2023-03-06T20:33:49.012Z,72.62
2023-03-06T20:36:28.895Z,72.90
2023-03-06T20:38:56.708Z,72.94
2023-03-06T20:41:25.856Z,73.20
2023-03-06T20:43:52.776Z,73.00
2023-03-06T20:46:20.759Z,73.38
2023-03-06T20:48:49.599Z,73.54
2023-03-06T20:51:21.664Z,73.75
2023-03-06T20:53:49.377Z,74.00
2023-03-06T20:56:19.347Z,75.02
2023-03-06T20:58:45.961Z,75.64
2023-03-06T21:01:23.294Z,76.49
2023-03-06T21:03:50.429Z,77.53
2023-03-06T21:06:17.807Z,78.73
2023-03-06T21:08:44.597Z,80.79
2023-03-06T21:11:11.258Z,82.47
2023-03-06T21:13:37.887Z,83.39
2023-03-06T21:16:10.631Z,84.15
2023-03-06T21:18:37.387Z,84.71
2023-03-06T21:21:12.704Z,85.26
2023-03-06T21:23:39.609Z,85.66
2023-03-06T21:26:06.404Z,85.93
2023-03-06T21:28:33.438Z,86.79
2023-03-06T21:31:01.200Z,86.99
2023-03-06T21:33:27.982Z,86.97
2023-03-06T21:35:54.831Z,86.74
2023-03-06T21:38:21.378Z,85.98
2023-03-06T21:40:47.896Z,86.03
2023-03-06T21:43:15.805Z,85.50
2023-03-06T21:45:47.105Z,84.96
2023-03-06T21:48:15.146Z,84.99
2023-03-06T21:50:42.479Z,84.75
2023-03-06T21:53:09.546Z,84.81
2023-03-06T21:55:40.502Z,84.98
2023-03-06T21:58:07.258Z,85.20
2023-03-06T22:00:36.222Z,84.79
2023-03-06T22:03:04.670Z,84.94
2023-03-06T22:05:33.908Z,84.87
2023-03-06T22:08:00.339Z,85.32
2023-03-06T22:10:26.976Z,84.86
2023-03-06T22:12:53.417Z,85.03
2023-03-06T22:15:21.815Z,85.48
2023-03-06T22:17:48.650Z,85.71
2023-03-06T22:20:15.433Z,86.47
2023-03-06T22:22:42.302Z,87.29
2023-03-06T22:25:09.322Z,87.99
2023-03-06T22:27:35.855Z,89.05
2023-03-06T22:30:02.428Z,90.15
2023-03-06T22:32:28.958Z,91.37
2023-03-06T22:34:55.477Z,92.07
2023-03-06T22:37:22.061Z,92.67
2023-03-06T22:39:48.564Z,93.43
2023-03-06T22:42:15.254Z,94.60
2023-03-06T22:44:41.754Z,95.80
2023-03-06T22:47:08.260Z,96.36
2023-03-06T22:49:34.776Z,96.84
2023-03-06T22:52:01.303Z,98.14
2023-03-06T22:54:27.889Z,98.63
2023-03-06T22:56:54.422Z,98.95
2023-03-06T22:59:21.050Z,99.05
2023-03-06T23:01:47.617Z,99.79
2023-03-06T23:04:14.338Z,99.73
2023-03-06T23:06:43.204Z,100.00
2023-03-06T23:09:21.868Z,100.00
2023-03-06T23:11:49.753Z,100.00
2023-03-06T23:14:17.271Z,100.00
2023-03-06T23:16:44.437Z,100.00
2023-03-06T23:19:11.402Z,100.00
2023-03-06T23:21:37.939Z,100.00
2023-03-06T23:24:05.441Z,100.00
2023-03-06T23:26:34.079Z,100.00
2023-03-06T23:29:01.253Z,100.00
2023-03-06T23:31:29.860Z,100.00
2023-03-06T23:34:01.869Z,100.00
2023-03-06T23:36:29.125Z,100.00
2023-03-06T23:38:56.170Z,100.00
2023-03-06T23:41:23.636Z,100.00
2023-03-06T23:43:51.968Z,100.00
2023-03-06T23:46:19.497Z,100.00
2023-03-06T23:48:46.289Z,100.00
2023-03-06T23:51:18.605Z,100.00
2023-03-06T23:53:46.157Z,100.00
2023-03-06T23:56:13.298Z,100.00
2023-03-06T23:58:40.703Z,100.00
